Time;durP1;ratioP1;P1;durP2;ratioP2;P2;SDS_P1;SDS_P2;PMS_P1;PMS_P2;Temp;Humidity;BMP_temperature;BMP_pressure;BME280_temperature;BME280_humidity;BME280_pressure;Samples;Min_cycle;Max_cycle;Signal;HPM_P1;HPM_P2
2021/03/10 00:01:05;;;;;;;35.95;22.77;;;;;;;;;;5053549;28;20067;-85
2021/03/10 00:03:31;;;;;;;39.28;23.63;;;;;;;;;;5043002;28;20110;-86
2021/03/10 00:05:58;;;;;;;44.97;26.33;;;;;;;;;;5059698;28;20060;-86
2021/03/10 00:08:24;;;;;;;41.95;26.35;;;;;;;;;;5062859;28;20493;-86
2021/03/10 00:10:50;;;;;;;40.05;24.75;;;;;;;;;;5040454;28;20095;-86
2021/03/10 00:13:16;;;;;;;40.45;24.80;;;;;;;;;;5057946;28;20045;-85
2021/03/10 00:15:42;;;;;;;39.00;24.05;;;;;;;;;;5040159;28;20094;-85
2021/03/10 00:18:08;;;;;;;40.90;25.38;;;;;;;;;;5057340;28;20057;-85
2021/03/10 00:20:35;;;;;;;39.05;25.95;;;;;;;;;;5040893;28;20106;-85
2021/03/10 00:23:02;;;;;;;43.75;26.42;;;;;;;;;;5057760;28;20056;-85
2021/03/10 00:25:28;;;;;;;44.92;27.15;;;;;;;;;;5057839;28;20068;-86
2021/03/10 00:27:54;;;;;;;34.85;21.38;;;;;;;;;;5057714;28;20061;-85
2021/03/10 00:30:21;;;;;;;37.70;24.15;;;;;;;;;;5041449;28;20049;-86
2021/03/10 00:32:47;;;;;;;41.70;26.20;;;;;;;;;;5040854;28;20052;-85
2021/03/10 00:35:13;;;;;;;41.20;25.65;;;;;;;;;;5040299;28;20048;-85
2021/03/10 00:37:39;;;;;;;39.28;24.77;;;;;;;;;;5040824;28;20057;-85
2021/03/10 00:40:07;;;;;;;39.13;23.55;;;;;;;;;;5041535;28;20045;-85
2021/03/10 00:42:33;;;;;;;38.72;23.80;;;;;;;;;;5058546;28;20049;-85
2021/03/10 00:44:59;;;;;;;34.40;21.80;;;;;;;;;;5058850;28;20604;-86
2021/03/10 00:47:26;;;;;;;40.00;25.33;;;;;;;;;;5040061;28;20055;-85
2021/03/10 00:49:52;;;;;;;35.00;22.20;;;;;;;;;;5041732;28;20123;-86
2021/03/10 00:52:18;;;;;;;44.55;26.55;;;;;;;;;;5041017;28;20045;-85
2021/03/10 00:54:44;;;;;;;47.33;26.83;;;;;;;;;;5059153;28;20049;-85
2021/03/10 00:57:11;;;;;;;43.65;26.58;;;;;;;;;;5040647;28;20063;-85
2021/03/10 00:59:37;;;;;;;39.63;25.30;;;;;;;;;;5040976;28;20051;-86
2021/03/10 01:02:04;;;;;;;36.40;22.50;;;;;;;;;;5024261;28;20056;-85
2021/03/10 01:04:30;;;;;;;41.88;26.40;;;;;;;;;;5058308;28;20552;-86
2021/03/10 01:06:56;;;;;;;47.45;30.17;;;;;;;;;;5041060;28;20041;-85
2021/03/10 01:09:23;;;;;;;52.38;29.27;;;;;;;;;;5042833;28;20045;-86
2021/03/10 01:11:49;;;;;;;42.50;26.50;;;;;;;;;;5043463;28;20065;-86
2021/03/10 01:14:16;;;;;;;39.05;24.27;;;;;;;;;;5043533;28;20053;-86
2021/03/10 01:16:42;;;;;;;41.58;24.38;;;;;;;;;;5026853;28;20049;-86
2021/03/10 01:19:08;;;;;;;49.13;28.52;;;;;;;;;;5060685;28;20063;-85
2021/03/10 01:21:34;;;;;;;43.63;26.88;;;;;;;;;;5062552;28;20053;-85
2021/03/10 01:24:01;;;;;;;47.22;27.83;;;;;;;;;;5027877;28;20499;-85
2021/03/10 01:26:27;;;;;;;40.22;25.45;;;;;;;;;;5061585;28;20112;-86
2021/03/10 01:28:53;;;;;;;36.08;24.20;;;;;;;;;;5061973;28;20041;-86
2021/03/10 01:31:20;;;;;;;36.97;23.98;;;;;;;;;;5043587;28;20100;-85
2021/03/10 01:33:46;;;;;;;41.40;25.35;;;;;;;;;;5025193;28;20049;-86
2021/03/10 01:36:12;;;;;;;35.78;24.25;;;;;;;;;;5041095;28;20137;-86
2021/03/10 01:38:38;;;;;;;40.55;25.55;;;;;;;;;;5040136;28;20517;-85
2021/03/10 01:41:05;;;;;;;40.85;25.52;;;;;;;;;;5041276;28;20203;-85
2021/03/10 01:43:31;;;;;;;43.72;28.25;;;;;;;;;;5042434;28;20049;-86
2021/03/10 01:45:57;;;;;;;42.83;26.55;;;;;;;;;;5026613;28;20099;-86
2021/03/10 01:48:25;;;;;;;36.97;24.25;;;;;;;;;;5010047;28;20053;-85
2021/03/10 01:50:51;;;;;;;36.00;22.58;;;;;;;;;;5026551;28;20048;-85
2021/03/10 01:53:17;;;;;;;38.13;25.05;;;;;;;;;;5018474;28;20053;-85
2021/03/10 01:55:44;;;;;;;37.17;23.95;;;;;;;;;;5036192;28;20382;-86
2021/03/10 01:58:10;;;;;;;38.75;24.25;;;;;;;;;;5036074;28;20099;-85
2021/03/10 02:00:36;;;;;;;38.72;24.00;;;;;;;;;;5036091;28;20053;-86
2021/03/10 02:08:44;;;;;;;44.00;27.50;;;;;;;;;;4993146;28;20495;-87
2021/03/10 02:11:16;;;;;;;48.63;28.80;;;;;;;;;;4978902;28;20050;-85
2021/03/10 02:13:51;;;;;;;46.63;28.55;;;;;;;;;;4995304;28;20053;-86
2021/03/10 02:16:23;;;;;;;49.90;29.60;;;;;;;;;;4995243;28;20050;-86
2021/03/10 02:18:56;;;;;;;44.17;27.08;;;;;;;;;;4977859;28;20482;-86
2021/03/10 02:21:25;;;;;;;47.70;27.65;;;;;;;;;;4977777;28;20057;-87
2021/03/10 02:24:04;;;;;;;43.78;26.38;;;;;;;;;;4977693;28;20047;-85
2021/03/10 02:26:35;;;;;;;50.22;29.52;;;;;;;;;;4995063;28;20054;-86
2021/03/10 02:29:04;;;;;;;47.85;27.77;;;;;;;;;;4961357;28;20053;-86
2021/03/10 02:31:33;;;;;;;45.58;27.63;;;;;;;;;;4977269;28;20050;-87
2021/03/10 02:34:00;;;;;;;47.15;30.05;;;;;;;;;;4994265;28;20042;-86
2021/03/10 02:36:27;;;;;;;45.25;29.15;;;;;;;;;;4994847;28;20050;-86
2021/03/10 02:38:54;;;;;;;47.90;28.25;;;;;;;;;;4977260;28;20051;-86
2021/03/10 02:41:21;;;;;;;51.28;31.75;;;;;;;;;;5008990;28;20050;-87
2021/03/10 02:43:49;;;;;;;53.70;31.45;;;;;;;;;;4996517;28;20081;-85
2021/03/10 02:46:17;;;;;;;44.00;26.38;;;;;;;;;;4997267;28;20540;-86
2021/03/10 02:48:44;;;;;;;46.83;29.27;;;;;;;;;;4997105;28;20050;-85
2021/03/10 02:51:11;;;;;;;50.10;31.15;;;;;;;;;;4997029;28;20099;-86
2021/03/10 02:53:40;;;;;;;46.60;29.15;;;;;;;;;;4996624;28;20049;-86
2021/03/10 02:56:06;;;;;;;45.92;28.35;;;;;;;;;;4996762;28;20050;-86
2021/03/10 02:58:32;;;;;;;45.60;29.15;;;;;;;;;;5014239;28;20054;-86
2021/03/10 03:00:59;;;;;;;50.35;31.00;;;;;;;;;;4996111;28;20060;-86
2021/03/10 03:03:26;;;;;;;50.25;30.40;;;;;;;;;;4996467;28;20058;-86
2021/03/10 03:05:52;;;;;;;42.28;28.52;;;;;;;;;;4996493;28;20042;-87
2021/03/10 03:08:18;;;;;;;50.55;30.05;;;;;;;;;;4995771;28;20050;-86
2021/03/10 03:10:44;;;;;;;48.05;30.50;;;;;;;;;;4997572;28;20100;-86
2021/03/10 03:13:13;;;;;;;53.50;31.27;;;;;;;;;;4999495;28;20050;-86
2021/03/10 03:15:40;;;;;;;50.22;28.85;;;;;;;;;;5016539;28;20050;-87
2021/03/10 03:18:06;;;;;;;46.00;29.60;;;;;;;;;;5016406;28;20513;-86
2021/03/10 03:20:33;;;;;;;48.97;30.15;;;;;;;;;;4999929;28;20137;-86
2021/03/10 03:23:00;;;;;;;53.20;30.75;;;;;;;;;;5017029;28;20049;-87
2021/03/10 03:25:28;;;;;;;49.15;30.55;;;;;;;;;;4999682;28;20053;-86
2021/03/10 03:27:57;;;;;;;52.17;32.10;;;;;;;;;;5016683;28;20046;-86
2021/03/10 03:30:24;;;;;;;48.05;30.70;;;;;;;;;;4999646;28;20080;-86
2021/03/10 03:32:52;;;;;;;51.38;31.77;;;;;;;;;;4983289;28;20056;-86
2021/03/10 03:35:19;;;;;;;51.00;31.52;;;;;;;;;;4999802;28;20042;-86
2021/03/10 03:37:47;;;;;;;47.25;29.58;;;;;;;;;;5017418;28;20051;-87
2021/03/10 03:40:14;;;;;;;50.42;32.13;;;;;;;;;;4983449;28;20061;-86
2021/03/10 03:42:40;;;;;;;51.35;31.38;;;;;;;;;;4999983;28;20382;-86
2021/03/10 03:45:08;;;;;;;49.88;28.85;;;;;;;;;;4999515;28;20046;-86
2021/03/10 03:47:35;;;;;;;47.83;29.77;;;;;;;;;;5005832;28;20069;-86
2021/03/10 03:50:01;;;;;;;48.55;28.67;;;;;;;;;;4979991;28;20644;-86
2021/03/10 03:52:27;;;;;;;45.40;27.92;;;;;;;;;;4980028;28;20050;-85
2021/03/10 03:54:56;;;;;;;51.60;31.83;;;;;;;;;;4964025;28;20053;-86
2021/03/10 03:57:23;;;;;;;51.97;30.40;;;;;;;;;;4979284;28;20046;-86
2021/03/10 03:59:49;;;;;;;50.50;30.85;;;;;;;;;;4979593;28;20106;-86
2021/03/10 04:07:48;;;;;;;54.47;30.70;;;;;;;;;;5013583;28;20389;-86
2021/03/10 04:10:15;;;;;;;50.08;31.40;;;;;;;;;;4998494;28;20080;-86
2021/03/10 04:12:41;;;;;;;51.03;31.83;;;;;;;;;;4998643;28;20054;-86
2021/03/10 04:15:08;;;;;;;48.05;30.38;;;;;;;;;;5016106;28;20108;-86
2021/03/10 04:17:34;;;;;;;51.58;30.90;;;;;;;;;;5015343;28;20046;-86
2021/03/10 04:20:02;;;;;;;45.08;28.42;;;;;;;;;;4998533;28;20050;-86
2021/03/10 04:22:28;;;;;;;50.58;30.63;;;;;;;;;;5010158;28;20064;-86
2021/03/10 04:24:54;;;;;;;48.45;29.63;;;;;;;;;;5017483;28;20050;-86
2021/03/10 04:27:22;;;;;;;47.67;29.88;;;;;;;;;;4998501;28;20160;-86
2021/03/10 04:29:48;;;;;;;47.90;30.08;;;;;;;;;;4998314;28;20383;-86
2021/03/10 04:32:14;;;;;;;47.58;29.65;;;;;;;;;;4999404;28;20045;-85
2021/03/10 04:34:40;;;;;;;52.17;31.58;;;;;;;;;;4999028;28;20045;-86
2021/03/10 04:37:06;;;;;;;48.70;30.02;;;;;;;;;;4998494;28;20494;-86
2021/03/10 04:39:32;;;;;;;46.33;28.27;;;;;;;;;;5015198;28;20077;-85
2021/03/10 04:41:58;;;;;;;49.63;29.75;;;;;;;;;;5015695;28;20132;-85
2021/03/10 04:44:25;;;;;;;44.35;27.58;;;;;;;;;;4982978;28;20112;-85
2021/03/10 04:46:51;;;;;;;57.80;31.00;;;;;;;;;;5016115;28;20063;-86
2021/03/10 04:49:17;;;;;;;50.25;31.40;;;;;;;;;;4998988;28;20065;-85
2021/03/10 04:51:43;;;;;;;49.67;29.73;;;;;;;;;;4998290;28;20069;-86
2021/03/10 04:54:10;;;;;;;48.13;30.38;;;;;;;;;;4982637;28;20394;-86
2021/03/10 04:56:36;;;;;;;52.45;30.40;;;;;;;;;;5015440;28;20104;-86
2021/03/10 04:59:02;;;;;;;45.58;28.23;;;;;;;;;;4998716;28;20054;-86
2021/03/10 05:01:30;;;;;;;48.38;29.02;;;;;;;;;;4998204;28;20054;-87
2021/03/10 05:14:46;;;;;;;50.15;28.85;;;;;;;;;;3117847;23;20305;-88
2021/03/10 05:17:13;;;;;;;44.92;26.42;;;;;;;;;;5022353;28;20059;-87
2021/03/10 05:19:40;;;;;;;47.80;29.15;;;;;;;;;;5001945;28;20152;-86
2021/03/10 05:22:06;;;;;;;47.90;27.75;;;;;;;;;;5035190;28;20064;-87
2021/03/10 05:24:32;;;;;;;50.08;27.83;;;;;;;;;;5012555;28;20053;-89
2021/03/10 05:26:58;;;;;;;48.20;29.33;;;;;;;;;;5006204;28;20509;-87
2021/03/10 05:29:24;;;;;;;48.47;29.08;;;;;;;;;;4990244;28;20137;-88
2021/03/10 05:31:53;;;;;;;50.45;27.63;;;;;;;;;;4979720;28;20077;-88
2021/03/10 05:34:20;;;;;;;45.13;27.23;;;;;;;;;;5004679;28;20046;-87
2021/03/10 05:36:46;;;;;;;45.22;27.83;;;;;;;;;;5013718;28;20050;-88
2021/03/10 05:39:13;;;;;;;46.50;28.20;;;;;;;;;;4989687;28;20045;-88
2021/03/10 05:41:39;;;;;;;50.17;30.73;;;;;;;;;;4996968;28;20050;-86
2021/03/10 05:44:07;;;;;;;45.80;28.70;;;;;;;;;;5003684;28;20418;-87
2021/03/10 05:46:33;;;;;;;51.53;29.88;;;;;;;;;;5000743;28;20053;-88
2021/03/10 05:48:59;;;;;;;52.22;31.17;;;;;;;;;;4970961;28;20379;-85
2021/03/10 06:13:19;;;;;;;51.33;30.88;;;;;;;;;;5793910;23;20061;-88
2021/03/10 06:15:45;;;;;;;53.67;30.08;;;;;;;;;;5037930;28;20045;-87
2021/03/10 06:18:21;;;;;;;54.70;31.55;;;;;;;;;;5053323;28;20422;-89
2021/03/10 06:20:48;;;;;;;52.15;30.70;;;;;;;;;;5054279;28;20080;-87
2021/03/10 06:23:15;;;;;;;47.35;29.15;;;;;;;;;;5036167;28;20040;-87
2021/03/10 06:25:41;;;;;;;48.33;29.17;;;;;;;;;;5036561;28;20045;-87
2021/03/10 06:28:07;;;;;;;52.17;30.67;;;;;;;;;;5053516;28;20049;-88
2021/03/10 06:30:37;;;;;;;49.90;30.15;;;;;;;;;;5036280;28;20508;-89
2021/03/10 06:33:04;;;;;;;45.65;30.02;;;;;;;;;;5036033;28;20049;-88
2021/03/10 06:35:31;;;;;;;50.88;30.05;;;;;;;;;;5053784;28;20053;-87
2021/03/10 06:38:11;;;;;;;50.65;28.65;;;;;;;;;;5054339;28;20060;-88
2021/03/10 06:40:55;;;;;;;48.72;29.15;;;;;;;;;;5060834;28;20048;-88
2021/03/10 06:43:33;;;;;;;53.35;30.67;;;;;;;;;;5061684;28;20045;-87
2021/03/10 06:46:13;;;;;;;47.90;29.17;;;;;;;;;;5057523;28;20071;-88
2021/03/10 06:48:39;;;;;;;55.20;31.60;;;;;;;;;;5040351;28;20045;-87
2021/03/10 06:51:13;;;;;;;50.78;30.67;;;;;;;;;;5039646;28;20053;-87
2021/03/10 06:53:39;;;;;;;50.92;29.70;;;;;;;;;;5039442;28;20515;-87
2021/03/10 06:56:05;;;;;;;48.80;29.67;;;;;;;;;;5057039;28;20049;-87
2021/03/10 06:58:31;;;;;;;52.80;31.38;;;;;;;;;;5057426;28;20062;-87
2021/03/10 07:01:01;;;;;;;47.75;28.77;;;;;;;;;;5057032;28;20049;-86
2021/03/10 07:03:29;;;;;;;50.80;30.58;;;;;;;;;;5044605;28;20064;-86
2021/03/10 07:05:55;;;;;;;50.47;30.55;;;;;;;;;;5044356;28;20071;-88
2021/03/10 07:08:21;;;;;;;51.28;29.83;;;;;;;;;;5037748;28;20045;-87
2021/03/10 07:10:48;;;;;;;49.25;30.75;;;;;;;;;;5038385;28;20049;-87
2021/03/10 07:13:14;;;;;;;55.65;31.80;;;;;;;;;;5020900;28;20054;-87
2021/03/10 07:15:40;;;;;;;51.50;30.63;;;;;;;;;;5020265;28;20049;-88
2021/03/10 07:18:06;;;;;;;50.92;29.70;;;;;;;;;;5038248;28;20497;-87
2021/03/10 07:20:33;;;;;;;50.90;30.65;;;;;;;;;;5028823;28;20060;-87
2021/03/10 07:23:06;;;;;;;50.10;29.70;;;;;;;;;;5057436;28;20068;-86
2021/03/10 07:25:36;;;;;;;49.88;29.10;;;;;;;;;;5039944;28;20052;-86
2021/03/10 07:28:04;;;;;;;48.00;27.65;;;;;;;;;;5058176;28;20059;-87
2021/03/10 07:30:39;;;;;;;48.15;30.55;;;;;;;;;;5038223;28;20057;-88
2021/03/10 07:33:07;;;;;;;42.92;27.58;;;;;;;;;;5004311;28;20049;-89
2021/03/10 07:35:46;;;;;;;48.78;28.75;;;;;;;;;;5021318;28;20095;-88
2021/03/10 07:38:12;;;;;;;49.70;29.88;;;;;;;;;;5020485;28;20056;-87
2021/03/10 07:40:38;;;;;;;45.47;27.80;;;;;;;;;;5037956;28;20071;-88
2021/03/10 07:43:04;;;;;;;47.88;28.88;;;;;;;;;;5044812;28;20057;-88
2021/03/10 07:45:42;;;;;;;48.65;27.50;;;;;;;;;;5057446;28;20096;-87
2021/03/10 07:48:09;;;;;;;47.13;27.50;;;;;;;;;;5039559;28;20398;-87
2021/03/10 07:50:40;;;;;;;49.63;28.38;;;;;;;;;;5057682;28;20407;-87
2021/03/10 07:53:07;;;;;;;50.80;29.65;;;;;;;;;;5041205;28;20408;-87
2021/03/10 07:55:41;;;;;;;49.58;28.92;;;;;;;;;;5056984;28;20048;-86
2021/03/10 07:58:07;;;;;;;46.33;28.73;;;;;;;;;;5056865;28;20053;-87
2021/03/10 08:00:34;;;;;;;43.90;27.83;;;;;;;;;;5029562;28;20049;-88
2021/03/10 08:03:00;;;;;;;47.55;29.15;;;;;;;;;;5037499;28;20493;-87
2021/03/10 08:05:28;;;;;;;49.17;31.63;;;;;;;;;;5018910;28;20045;-89
2021/03/10 08:08:07;;;;;;;46.95;28.55;;;;;;;;;;5025688;28;20444;-87
2021/03/10 08:10:35;;;;;;;49.95;28.67;;;;;;;;;;5040664;28;20109;-86
2021/03/10 08:13:15;;;;;;;50.30;29.85;;;;;;;;;;5022731;28;20045;-87
2021/03/10 08:15:41;;;;;;;44.08;26.70;;;;;;;;;;5039053;28;20075;-86
2021/03/10 08:18:07;;;;;;;46.85;28.17;;;;;;;;;;5048980;28;20053;-86
2021/03/10 08:20:35;;;;;;;46.47;26.95;;;;;;;;;;5034315;28;20060;-87
2021/03/10 08:23:02;;;;;;;48.60;28.58;;;;;;;;;;5055958;28;20052;-86
2021/03/10 08:25:29;;;;;;;45.80;27.60;;;;;;;;;;5056523;28;20059;-86
2021/03/10 08:27:55;;;;;;;48.13;27.38;;;;;;;;;;5037974;28;20110;-86
2021/03/10 08:30:23;;;;;;;44.95;26.75;;;;;;;;;;5055220;28;20048;-86
2021/03/10 08:32:49;;;;;;;47.22;27.65;;;;;;;;;;5037599;28;20063;-87
2021/03/10 08:35:17;;;;;;;44.03;26.95;;;;;;;;;;5055841;28;20048;-88
2021/03/10 08:37:51;;;;;;;44.33;25.50;;;;;;;;;;5038639;28;20186;-87
2021/03/10 08:40:20;;;;;;;43.65;27.27;;;;;;;;;;5022171;28;20103;-86
2021/03/10 08:42:48;;;;;;;43.67;26.40;;;;;;;;;;5056864;28;20045;-87
2021/03/10 08:45:20;;;;;;;44.70;26.70;;;;;;;;;;5038464;28;20049;-87
2021/03/10 08:47:56;;;;;;;44.30;24.95;;;;;;;;;;5055356;28;20554;-87
2021/03/10 08:50:27;;;;;;;39.85;24.77;;;;;;;;;;5055076;28;20099;-86
2021/03/10 08:52:53;;;;;;;39.88;25.13;;;;;;;;;;5037344;28;20060;-86
2021/03/10 08:55:23;;;;;;;39.90;24.38;;;;;;;;;;5036801;28;20045;-87
2021/03/10 08:57:50;;;;;;;41.60;25.00;;;;;;;;;;5055291;28;20120;-87
2021/03/10 09:00:20;;;;;;;37.45;23.88;;;;;;;;;;5037384;28;20463;-87
2021/03/10 09:02:49;;;;;;;38.65;23.30;;;;;;;;;;5041572;28;20072;-87
2021/03/10 09:05:15;;;;;;;42.05;23.83;;;;;;;;;;5040659;28;20055;-86
2021/03/10 09:07:42;;;;;;;36.95;23.77;;;;;;;;;;5053542;28;20052;-86
2021/03/10 09:10:10;;;;;;;36.00;22.95;;;;;;;;;;5020624;28;20045;-86
2021/03/10 09:12:40;;;;;;;37.08;23.45;;;;;;;;;;5036001;28;20056;-87
2021/03/10 09:15:10;;;;;;;38.45;22.30;;;;;;;;;;5054793;28;20393;-87
2021/03/10 09:17:37;;;;;;;37.85;22.60;;;;;;;;;;5055308;28;20053;-87
2021/03/10 09:20:04;;;;;;;32.35;21.15;;;;;;;;;;5038845;28;20075;-88
2021/03/10 09:22:31;;;;;;;35.20;22.17;;;;;;;;;;5032533;28;20045;-87
2021/03/10 09:24:58;;;;;;;35.85;21.23;;;;;;;;;;5049539;28;20045;-88
2021/03/10 09:27:26;;;;;;;33.47;21.27;;;;;;;;;;5055413;28;20049;-87
2021/03/10 09:29:54;;;;;;;31.27;20.73;;;;;;;;;;5036573;28;20072;-87
2021/03/10 09:32:21;;;;;;;29.17;20.27;;;;;;;;;;5054240;28;20040;-87
2021/03/10 09:34:49;;;;;;;34.47;22.30;;;;;;;;;;5037204;28;20485;-88
2021/03/10 09:37:15;;;;;;;31.95;20.95;;;;;;;;;;5052640;28;20048;-90
2021/03/10 09:39:44;;;;;;;30.70;19.50;;;;;;;;;;5034782;28;20057;-88
2021/03/10 09:42:11;;;;;;;31.75;21.85;;;;;;;;;;5018354;28;20052;-88
2021/03/10 09:44:41;;;;;;;30.40;19.70;;;;;;;;;;5018087;28;20049;-87
2021/03/10 09:47:13;;;;;;;31.75;20.02;;;;;;;;;;5036456;28;20053;-88
2021/03/10 09:49:46;;;;;;;32.95;19.27;;;;;;;;;;5002899;28;20049;-88
2021/03/10 09:52:12;;;;;;;29.58;19.50;;;;;;;;;;5045032;28;20045;-87
2021/03/10 09:54:49;;;;;;;32.85;18.92;;;;;;;;;;5041189;28;20053;-87
2021/03/10 09:57:20;;;;;;;25.92;17.55;;;;;;;;;;5021782;28;20054;-87
2021/03/10 09:59:47;;;;;;;29.05;19.10;;;;;;;;;;5005573;28;20486;-87
2021/03/10 10:02:15;;;;;;;29.40;18.10;;;;;;;;;;5026918;28;20059;-87
2021/03/10 10:04:41;;;;;;;28.45;20.27;;;;;;;;;;5059661;28;20049;-87
2021/03/10 10:07:09;;;;;;;31.92;18.38;;;;;;;;;;5046129;28;20053;-88
2021/03/10 10:09:36;;;;;;;29.35;18.80;;;;;;;;;;5016832;28;20050;-86
2021/03/10 10:12:02;;;;;;;25.08;17.27;;;;;;;;;;5034511;28;20502;-88
2021/03/10 10:14:29;;;;;;;29.02;17.63;;;;;;;;;;5016378;28;20589;-88
2021/03/10 10:16:55;;;;;;;31.83;19.65;;;;;;;;;;5024672;28;20481;-88
2021/03/10 10:19:21;;;;;;;29.63;19.08;;;;;;;;;;5037035;28;20052;-87
2021/03/10 10:21:50;;;;;;;26.27;18.75;;;;;;;;;;5058093;28;20076;-88
2021/03/10 10:24:17;;;;;;;28.50;19.17;;;;;;;;;;5058030;28;20401;-87
2021/03/10 10:26:44;;;;;;;26.40;18.20;;;;;;;;;;5023863;28;20048;-88
2021/03/10 10:29:10;;;;;;;27.17;18.35;;;;;;;;;;5036433;28;20124;-89
2021/03/10 10:31:36;;;;;;;24.58;17.17;;;;;;;;;;5012974;28;20107;-88
2021/03/10 10:34:03;;;;;;;26.58;16.45;;;;;;;;;;5040089;28;20103;-87
2021/03/10 10:36:29;;;;;;;24.83;16.05;;;;;;;;;;5058135;28;20045;-87
2021/03/10 10:38:55;;;;;;;25.27;15.32;;;;;;;;;;5058926;28;20060;-86
2021/03/10 10:41:24;;;;;;;25.40;15.93;;;;;;;;;;5034566;28;20049;-86
2021/03/10 10:43:50;;;;;;;25.70;16.13;;;;;;;;;;5060406;28;20049;-86
2021/03/10 10:46:16;;;;;;;24.38;16.77;;;;;;;;;;5042696;28;20057;-86
2021/03/10 10:48:42;;;;;;;23.88;16.10;;;;;;;;;;5058920;28;20098;-88
2021/03/10 10:51:08;;;;;;;24.83;15.93;;;;;;;;;;5040341;28;20060;-88
2021/03/10 10:53:35;;;;;;;28.73;17.27;;;;;;;;;;5058264;28;20045;-87
2021/03/10 10:56:01;;;;;;;28.25;18.05;;;;;;;;;;5058329;28;20413;-87
2021/03/10 10:58:28;;;;;;;25.42;16.67;;;;;;;;;;5058250;28;20390;-87
2021/03/10 11:00:54;;;;;;;26.58;16.13;;;;;;;;;;5041146;28;20041;-88
2021/03/10 11:03:22;;;;;;;26.75;17.40;;;;;;;;;;5057688;28;20396;-88
2021/03/10 11:05:49;;;;;;;24.50;16.55;;;;;;;;;;5032836;28;20075;-88
2021/03/10 11:08:15;;;;;;;28.38;16.80;;;;;;;;;;5020593;28;20049;-88
2021/03/10 11:10:41;;;;;;;26.67;18.38;;;;;;;;;;5020410;28;20397;-89
2021/03/10 11:13:07;;;;;;;24.95;16.70;;;;;;;;;;5004126;28;20106;-89
2021/03/10 11:15:34;;;;;;;26.15;17.45;;;;;;;;;;5020086;28;20045;-89
2021/03/10 11:18:01;;;;;;;26.73;17.10;;;;;;;;;;5038421;28;20582;-89
2021/03/10 11:20:27;;;;;;;25.23;17.10;;;;;;;;;;5037547;28;20050;-87
2021/03/10 11:22:53;;;;;;;26.92;16.63;;;;;;;;;;5041696;28;20067;-89
2021/03/10 11:25:19;;;;;;;26.88;16.95;;;;;;;;;;5057934;28;20044;-89
2021/03/10 11:27:47;;;;;;;26.08;17.05;;;;;;;;;;5056243;28;20128;-88
2021/03/10 11:30:14;;;;;;;28.80;17.08;;;;;;;;;;5056461;28;20475;-89
2021/03/10 11:32:41;;;;;;;23.95;15.63;;;;;;;;;;5037241;28;20046;-89
2021/03/10 11:35:09;;;;;;;29.08;17.95;;;;;;;;;;5018449;28;20056;-89
2021/03/10 11:37:35;;;;;;;28.25;17.58;;;;;;;;;;5036261;28;20158;-88
2021/03/10 11:40:02;;;;;;;26.20;17.05;;;;;;;;;;5018460;28;20139;-89
2021/03/10 11:42:31;;;;;;;27.23;18.08;;;;;;;;;;5002462;28;20045;-89
2021/03/10 11:44:57;;;;;;;24.13;16.15;;;;;;;;;;5036263;28;20041;-90
2021/03/10 11:47:23;;;;;;;24.63;15.60;;;;;;;;;;5002341;28;20462;-89
2021/03/10 11:49:51;;;;;;;28.13;16.88;;;;;;;;;;5018543;28;20140;-89
2021/03/10 11:52:17;;;;;;;25.60;16.17;;;;;;;;;;5035894;28;20049;-87
2021/03/10 11:54:43;;;;;;;23.25;14.52;;;;;;;;;;5035432;28;20557;-87
2021/03/10 11:57:09;;;;;;;19.15;12.55;;;;;;;;;;5018488;28;20057;-87
2021/03/10 11:59:35;;;;;;;19.38;11.82;;;;;;;;;;5036617;28;20469;-87
2021/03/10 12:02:02;;;;;;;17.70;12.13;;;;;;;;;;5018416;28;20057;-87
2021/03/10 12:04:28;;;;;;;17.63;10.85;;;;;;;;;;5036259;28;20053;-87
2021/03/10 12:06:55;;;;;;;20.15;12.50;;;;;;;;;;5035808;28;20056;-87
2021/03/10 12:09:21;;;;;;;18.10;11.30;;;;;;;;;;5018385;28;20053;-87
2021/03/10 12:11:47;;;;;;;18.67;11.95;;;;;;;;;;5035989;28;20054;-87
2021/03/10 12:14:14;;;;;;;20.40;13.27;;;;;;;;;;5018292;28;20050;-87
2021/03/10 12:16:40;;;;;;;17.70;11.70;;;;;;;;;;5033549;28;20057;-88
2021/03/10 12:19:06;;;;;;;19.15;12.15;;;;;;;;;;4999707;28;20064;-87
2021/03/10 12:21:34;;;;;;;19.13;12.43;;;;;;;;;;4999929;28;20054;-87
2021/03/10 12:24:01;;;;;;;17.30;12.35;;;;;;;;;;5017182;28;20104;-87
2021/03/10 12:26:27;;;;;;;18.23;12.73;;;;;;;;;;5017443;28;20045;-88
2021/03/10 12:28:53;;;;;;;20.17;13.27;;;;;;;;;;5000141;28;20089;-88
2021/03/10 12:31:20;;;;;;;23.95;12.55;;;;;;;;;;5005610;28;20482;-87
2021/03/10 12:33:46;;;;;;;20.02;13.02;;;;;;;;;;5032130;28;20048;-86
2021/03/10 12:36:12;;;;;;;19.90;13.52;;;;;;;;;;5002017;28;20046;-89
2021/03/10 12:38:41;;;;;;;17.95;11.55;;;;;;;;;;5035747;28;20129;-89
2021/03/10 12:41:08;;;;;;;19.63;12.18;;;;;;;;;;5035818;28;20054;-87
2021/03/10 12:43:37;;;;;;;18.33;11.38;;;;;;;;;;5016438;28;20053;-89
2021/03/10 12:46:04;;;;;;;19.30;12.60;;;;;;;;;;5023890;28;20053;-88
2021/03/10 12:48:30;;;;;;;17.65;11.25;;;;;;;;;;5002601;28;20048;-87
2021/03/10 12:50:56;;;;;;;19.33;12.32;;;;;;;;;;5015029;28;20100;-88
2021/03/10 12:53:25;;;;;;;20.85;12.82;;;;;;;;;;4992955;28;20497;-91
2021/03/10 12:55:51;;;;;;;20.98;14.48;;;;;;;;;;5000442;28;20042;-88
2021/03/10 12:58:18;;;;;;;20.55;14.10;;;;;;;;;;5016806;28;20114;-88
2021/03/10 13:00:44;;;;;;;21.55;14.40;;;;;;;;;;5023903;28;20558;-89
2021/03/10 13:03:10;;;;;;;21.63;14.25;;;;;;;;;;5017895;28;20069;-88
2021/03/10 13:05:36;;;;;;;20.83;13.32;;;;;;;;;;5032713;28;20056;-87
2021/03/10 13:08:03;;;;;;;21.23;14.32;;;;;;;;;;5030252;28;20041;-89
2021/03/10 13:10:30;;;;;;;23.17;15.10;;;;;;;;;;5034254;28;20073;-88
2021/03/10 13:12:56;;;;;;;21.38;14.38;;;;;;;;;;5016754;28;20501;-87
2021/03/10 13:15:23;;;;;;;21.70;14.18;;;;;;;;;;5034128;28;20394;-87
2021/03/10 13:17:49;;;;;;;20.27;13.30;;;;;;;;;;5016696;28;20107;-86
2021/03/10 13:20:16;;;;;;;22.85;13.63;;;;;;;;;;5006043;28;20118;-89
2021/03/10 13:22:43;;;;;;;19.90;13.45;;;;;;;;;;5034371;28;20539;-88
2021/03/10 13:25:12;;;;;;;22.33;12.88;;;;;;;;;;5034214;28;20075;-88
2021/03/10 13:27:38;;;;;;;21.05;13.63;;;;;;;;;;5034906;28;20094;-88
2021/03/10 13:30:06;;;;;;;21.77;13.35;;;;;;;;;;5016599;28;20453;-88
2021/03/10 13:32:33;;;;;;;18.75;13.30;;;;;;;;;;5027708;28;20041;-89
2021/03/10 13:34:59;;;;;;;22.25;14.18;;;;;;;;;;5034975;28;20057;-88
2021/03/10 13:37:25;;;;;;;24.42;14.70;;;;;;;;;;5039366;28;20042;-87
2021/03/10 13:39:51;;;;;;;19.83;12.98;;;;;;;;;;5031114;28;20046;-88
2021/03/10 13:42:17;;;;;;;18.85;12.98;;;;;;;;;;5034304;28;20053;-88
2021/03/10 13:44:43;;;;;;;19.65;12.68;;;;;;;;;;5029637;28;20524;-89
2021/03/10 13:47:09;;;;;;;19.73;12.57;;;;;;;;;;5018987;28;20057;-88
2021/03/10 13:49:36;;;;;;;19.30;12.80;;;;;;;;;;5018785;28;20052;-89
2021/03/10 13:52:03;;;;;;;17.65;11.60;;;;;;;;;;5015886;28;20054;-90
2021/03/10 13:54:29;;;;;;;20.58;13.43;;;;;;;;;;5026477;28;20428;-87
2021/03/10 13:56:55;;;;;;;18.80;12.13;;;;;;;;;;5035285;28;20049;-90
2021/03/10 13:59:21;;;;;;;17.02;11.32;;;;;;;;;;5024960;28;20046;-89
2021/03/10 14:01:48;;;;;;;17.60;11.32;;;;;;;;;;5019307;28;20049;-89
2021/03/10 14:04:14;;;;;;;20.88;13.13;;;;;;;;;;5011623;28;20046;-89
2021/03/10 14:06:41;;;;;;;19.23;13.57;;;;;;;;;;5016875;28;20104;-89
2021/03/10 14:09:07;;;;;;;18.63;12.18;;;;;;;;;;5003740;28;20053;-88
2021/03/10 14:11:33;;;;;;;23.02;12.77;;;;;;;;;;5007933;28;20441;-87
2021/03/10 14:13:59;;;;;;;27.25;13.88;;;;;;;;;;5017573;28;20404;-88
2021/03/10 14:16:26;;;;;;;28.33;13.23;;;;;;;;;;5021890;28;20042;-88
2021/03/10 14:18:52;;;;;;;24.35;13.68;;;;;;;;;;5014658;28;20049;-88
2021/03/10 14:21:18;;;;;;;21.35;12.23;;;;;;;;;;5034821;28;20045;-88
2021/03/10 14:23:45;;;;;;;18.30;12.40;;;;;;;;;;5023593;28;20042;-90
2021/03/10 14:26:11;;;;;;;19.33;12.13;;;;;;;;;;5030159;28;20053;-89
2021/03/10 14:28:38;;;;;;;18.05;12.20;;;;;;;;;;5011518;28;20153;-89
2021/03/10 14:31:04;;;;;;;18.45;12.68;;;;;;;;;;5004507;28;20052;-89
2021/03/10 14:33:30;;;;;;;17.70;11.13;;;;;;;;;;5023396;28;20478;-90
2021/03/10 14:35:57;;;;;;;16.55;11.38;;;;;;;;;;5028078;28;20057;-89
2021/03/10 14:38:23;;;;;;;18.67;11.48;;;;;;;;;;5032001;28;20323;-89
2021/03/10 14:40:50;;;;;;;17.10;12.05;;;;;;;;;;5032867;28;20632;-90
2021/03/10 14:43:16;;;;;;;14.30;10.70;;;;;;;;;;5032524;28;20385;-88
2021/03/10 14:45:43;;;;;;;17.15;12.20;;;;;;;;;;5034105;28;20084;-88
2021/03/10 14:48:09;;;;;;;17.55;11.70;;;;;;;;;;5032382;28;20088;-89
2021/03/10 14:50:35;;;;;;;19.25;10.85;;;;;;;;;;5032288;28;20053;-88
2021/03/10 14:53:01;;;;;;;15.80;11.15;;;;;;;;;;5032463;28;20057;-86
2021/03/10 14:55:28;;;;;;;19.25;11.68;;;;;;;;;;5016376;28;20050;-87
2021/03/10 14:57:55;;;;;;;19.13;12.23;;;;;;;;;;5016198;28;20136;-86
2021/03/10 15:00:23;;;;;;;16.88;10.88;;;;;;;;;;5033273;28;20140;-88